Time;durP1;ratioP1;P1;durP2;ratioP2;P2;SDS_P1;SDS_P2;PMS_P1;PMS_P2;Temp;Humidity;BMP_temperature;BMP_pressure;BME280_temperature;BME280_humidity;BME280_pressure;Samples;Min_cycle;Max_cycle;Signal;HPM_P1;HPM_P2
2023/07/26 00:01:57;;;;;;;;;14.25;14.25;;;;;;;;5048897;28;9402;-81
2023/07/26 00:04:25;;;;;;;;;15.75;14.75;;;;;;;;5049715;28;9470;-81
2023/07/26 00:06:55;;;;;;;;;13.00;11.75;;;;;;;;5049484;28;9385;-81
2023/07/26 00:09:22;;;;;;;;;16.75;16.75;;;;;;;;5049970;28;9505;-82
2023/07/26 00:11:51;;;;;;;;;17.25;17.25;;;;;;;;5049831;28;9732;-82
2023/07/26 00:14:18;;;;;;;;;22.00;20.50;;;;;;;;5049476;28;9719;-82
2023/07/26 00:16:45;;;;;;;;;36.25;32.50;;;;;;;;5049783;28;9735;-82
2023/07/26 00:19:13;;;;;;;;;37.75;33.25;;;;;;;;5049749;28;10119;-82
2023/07/26 00:21:40;;;;;;;;;44.25;37.75;;;;;;;;5050042;28;10351;-82
2023/07/26 00:24:07;;;;;;;;;48.25;40.25;;;;;;;;5050454;28;10684;-81
2023/07/26 00:26:35;;;;;;;;;46.75;40.00;;;;;;;;5050679;28;10732;-82
2023/07/26 00:29:04;;;;;;;;;58.25;46.75;;;;;;;;5051159;28;10545;-82
2023/07/26 00:31:31;;;;;;;;;50.25;43.00;;;;;;;;5050947;28;11066;-82
2023/07/26 00:33:58;;;;;;;;;52.00;44.25;;;;;;;;5050811;28;11142;-81
2023/07/26 00:36:26;;;;;;;;;50.50;42.50;;;;;;;;5049757;28;10915;-81
2023/07/26 00:38:53;;;;;;;;;36.00;33.00;;;;;;;;5049891;28;10848;-82
2023/07/26 00:41:20;;;;;;;;;49.50;41.50;;;;;;;;5049960;28;10828;-81
2023/07/26 00:43:47;;;;;;;;;46.50;40.50;;;;;;;;5049410;28;10992;-81
2023/07/26 00:46:17;;;;;;;;;39.75;34.50;;;;;;;;5049568;28;11054;-82
2023/07/26 00:48:44;;;;;;;;;38.75;34.75;;;;;;;;5049847;28;10876;-81
2023/07/26 00:51:12;;;;;;;;;37.00;34.00;;;;;;;;5049322;28;10711;-82
2023/07/26 00:53:39;;;;;;;;;32.75;31.00;;;;;;;;5049295;28;10602;-81
2023/07/26 00:56:06;;;;;;;;;35.25;32.00;;;;;;;;5048974;28;11240;-81
2023/07/26 00:58:35;;;;;;;;;31.00;28.00;;;;;;;;5049504;28;10503;-82
2023/07/26 01:01:03;;;;;;;;;31.00;30.50;;;;;;;;5048889;28;10969;-82
2023/07/26 01:03:34;;;;;;;;;30.50;30.50;;;;;;;;5049585;28;10421;-82
2023/07/26 01:06:09;;;;;;;;;33.75;31.25;;;;;;;;5049530;28;10186;-82
2023/07/26 01:08:45;;;;;;;;;33.50;32.25;;;;;;;;5049408;28;10424;-81
2023/07/26 01:11:18;;;;;;;;;36.50;32.25;;;;;;;;5050264;28;10554;-81
2023/07/26 01:13:50;;;;;;;;;37.75;32.50;;;;;;;;5051596;28;10395;-81
2023/07/26 01:16:18;;;;;;;;;30.75;29.50;;;;;;;;5052908;28;11054;-82
2023/07/26 01:18:46;;;;;;;;;36.25;33.75;;;;;;;;5052743;28;10382;-81
2023/07/26 01:21:14;;;;;;;;;31.25;30.75;;;;;;;;5052681;28;10519;-81
2023/07/26 01:23:43;;;;;;;;;35.00;32.00;;;;;;;;5052586;28;10553;-82
2023/07/26 01:26:10;;;;;;;;;37.25;33.00;;;;;;;;5052543;28;10350;-82
2023/07/26 01:28:37;;;;;;;;;33.25;32.25;;;;;;;;5052423;28;10236;-81
2023/07/26 01:31:06;;;;;;;;;31.75;30.75;;;;;;;;5052566;28;10035;-81
2023/07/26 01:33:34;;;;;;;;;30.75;30.50;;;;;;;;5052775;28;10045;-82
2023/07/26 01:36:02;;;;;;;;;30.50;29.25;;;;;;;;5053047;28;10080;-82
2023/07/26 01:38:30;;;;;;;;;33.00;32.00;;;;;;;;5052433;28;9916;-84
2023/07/26 01:41:00;;;;;;;;;30.50;30.50;;;;;;;;5052591;28;10107;-82
2023/07/26 01:43:28;;;;;;;;;30.75;30.75;;;;;;;;5052746;28;9950;-82
2023/07/26 01:45:56;;;;;;;;;34.00;30.25;;;;;;;;5052261;28;9974;-81
2023/07/26 01:48:23;;;;;;;;;27.25;25.75;;;;;;;;5052420;28;9738;-81
2023/07/26 01:50:50;;;;;;;;;28.50;27.00;;;;;;;;5052458;28;9829;-82
2023/07/26 01:53:18;;;;;;;;;28.50;27.50;;;;;;;;5052553;28;10020;-81
2023/07/26 01:55:45;;;;;;;;;27.50;26.75;;;;;;;;5052598;28;9710;-82
2023/07/26 01:58:15;;;;;;;;;24.25;24.25;;;;;;;;5052299;28;9715;-82
2023/07/26 02:00:45;;;;;;;;;19.75;19.75;;;;;;;;5051867;28;9590;-82
2023/07/26 02:03:13;;;;;;;;;19.25;17.25;;;;;;;;5052223;28;9644;-82
2023/07/26 02:05:44;;;;;;;;;21.25;21.25;;;;;;;;5052064;28;9522;-82
2023/07/26 02:08:11;;;;;;;;;26.50;23.00;;;;;;;;5052446;28;9720;-82
2023/07/26 02:10:40;;;;;;;;;20.25;18.50;;;;;;;;5054127;28;9611;-82
2023/07/26 02:13:07;;;;;;;;;19.00;19.00;;;;;;;;5054020;28;9560;-82
2023/07/26 02:15:38;;;;;;;;;17.00;17.00;;;;;;;;5053544;28;9600;-82
2023/07/26 02:18:06;;;;;;;;;17.00;17.00;;;;;;;;5052616;28;9486;-82
2023/07/26 02:20:34;;;;;;;;;17.00;17.00;;;;;;;;5052819;28;9621;-81
2023/07/26 02:23:01;;;;;;;;;14.33;13.67;;;;;;;;5051703;28;9278;-81
2023/07/26 02:25:29;;;;;;;;;12.00;12.00;;;;;;;;5050524;28;9781;-82
2023/07/26 02:27:56;;;;;;;;;10.33;10.33;;;;;;;;5050566;28;9612;-82
2023/07/26 02:30:23;;;;;;;;;11.67;11.67;;;;;;;;5050593;28;9192;-81
2023/07/26 02:32:52;;;;;;;;;14.67;13.00;;;;;;;;5051228;28;9288;-81
2023/07/26 02:35:19;;;;;;;;;14.67;14.67;;;;;;;;5050951;28;9253;-82
2023/07/26 02:37:46;;;;;;;;;13.33;13.33;;;;;;;;5051311;28;9338;-81
2023/07/26 02:40:14;;;;;;;;;18.25;16.50;;;;;;;;5051047;28;9413;-81
2023/07/26 02:42:44;;;;;;;;;16.25;16.25;;;;;;;;5051208;28;10299;-82
2023/07/26 02:45:11;;;;;;;;;15.75;15.75;;;;;;;;5051429;28;10152;-82
2023/07/26 02:47:38;;;;;;;;;20.00;19.00;;;;;;;;5051012;28;9521;-82
2023/07/26 02:50:10;;;;;;;;;20.25;17.50;;;;;;;;5051296;28;9549;-82
2023/07/26 02:52:37;;;;;;;;;19.00;17.25;;;;;;;;5051425;28;9637;-81
2023/07/26 02:55:05;;;;;;;;;15.00;14.00;;;;;;;;5052196;28;9558;-81
2023/07/26 02:57:32;;;;;;;;;13.00;11.33;;;;;;;;5052958;28;9623;-81
2023/07/26 02:59:59;;;;;;;;;4.67;4.67;;;;;;;;5053217;28;9457;-82
2023/07/26 03:02:35;;;;;;;;;8.25;8.25;;;;;;;;5050439;28;9407;-82
2023/07/26 03:05:03;;;;;;;;;9.00;9.00;;;;;;;;5051022;28;9579;-82
2023/07/26 03:07:31;;;;;;;;;9.75;9.00;;;;;;;;5050739;28;9549;-82
2023/07/26 03:09:58;;;;;;;;;7.00;7.00;;;;;;;;5050646;28;9628;-81
2023/07/26 03:12:26;;;;;;;;;8.00;8.00;;;;;;;;5050607;28;9319;-81
2023/07/26 03:14:53;;;;;;;;;7.00;7.00;;;;;;;;5050593;28;9528;-81
2023/07/26 03:17:20;;;;;;;;;10.25;9.00;;;;;;;;5050632;28;9411;-81
2023/07/26 03:19:47;;;;;;;;;9.00;9.00;;;;;;;;5050735;28;9669;-81
2023/07/26 03:22:15;;;;;;;;;8.00;8.00;;;;;;;;5050236;28;9576;-81
2023/07/26 03:24:43;;;;;;;;;7.50;7.50;;;;;;;;5050501;28;9461;-82
2023/07/26 03:27:13;;;;;;;;;10.75;10.75;;;;;;;;5050623;28;9607;-81
2023/07/26 03:29:41;;;;;;;;;10.75;8.75;;;;;;;;5052133;28;9524;-81
2023/07/26 03:32:08;;;;;;;;;10.25;7.75;;;;;;;;5051181;28;9548;-81
2023/07/26 03:34:36;;;;;;;;;11.00;9.50;;;;;;;;5050574;28;9621;-82
2023/07/26 03:37:03;;;;;;;;;9.25;9.25;;;;;;;;5049966;28;9669;-82
2023/07/26 03:39:30;;;;;;;;;10.00;9.50;;;;;;;;5050490;28;9808;-82
2023/07/26 03:41:59;;;;;;;;;7.75;7.25;;;;;;;;5050848;28;9717;-82
2023/07/26 03:44:26;;;;;;;;;9.50;8.00;;;;;;;;5050852;28;9754;-82
2023/07/26 03:46:53;;;;;;;;;10.00;8.00;;;;;;;;5049068;28;9589;-82
2023/07/26 03:49:21;;;;;;;;;8.00;8.00;;;;;;;;5051487;28;9474;-82
2023/07/26 03:51:48;;;;;;;;;11.00;9.75;;;;;;;;5051258;28;10288;-82
2023/07/26 03:54:15;;;;;;;;;10.00;7.00;;;;;;;;5051116;28;9465;-82
2023/07/26 03:56:45;;;;;;;;;7.67;7.67;;;;;;;;5050245;28;9510;-82
2023/07/26 03:59:14;;;;;;;;;6.67;6.67;;;;;;;;5049804;28;9338;-81
2023/07/26 04:01:42;;;;;;;;;6.50;6.50;;;;;;;;5049326;28;9309;-82
2023/07/26 04:04:09;;;;;;;;;10.25;8.75;;;;;;;;5049972;28;9479;-80
2023/07/26 04:06:36;;;;;;;;;6.00;6.00;;;;;;;;5050389;28;9578;-81
2023/07/26 04:09:03;;;;;;;;;6.75;6.75;;;;;;;;5049215;28;9431;-84
2023/07/26 04:11:30;;;;;;;;;7.00;7.00;;;;;;;;5049286;28;10205;-82
2023/07/26 04:13:58;;;;;;;;;8.00;8.00;;;;;;;;5048796;28;9513;-82
2023/07/26 04:16:26;;;;;;;;;7.67;7.67;;;;;;;;5048975;28;9709;-81
2023/07/26 04:18:53;;;;;;;;;7.50;7.50;;;;;;;;5048943;28;9420;-81
2023/07/26 04:21:21;;;;;;;;;8.25;8.25;;;;;;;;5049682;28;9556;-82
2023/07/26 04:23:48;;;;;;;;;7.00;7.00;;;;;;;;5048873;28;9407;-81
2023/07/26 04:26:16;;;;;;;;;5.00;5.00;;;;;;;;5049154;28;9413;-81
2023/07/26 04:28:51;;;;;;;;;7.67;7.67;;;;;;;;5049050;28;9511;-81
2023/07/26 04:31:18;;;;;;;;;6.00;6.00;;;;;;;;5048353;28;9250;-82
2023/07/26 04:33:47;;;;;;;;;11.75;8.50;;;;;;;;5049963;28;9445;-82
2023/07/26 04:36:14;;;;;;;;;4.75;4.75;;;;;;;;5049207;28;9554;-82
2023/07/26 04:38:44;;;;;;;;;8.00;8.00;;;;;;;;5049901;28;9427;-81
2023/07/26 04:41:13;;;;;;;;;6.25;6.25;;;;;;;;5050216;28;9466;-81
2023/07/26 04:43:40;;;;;;;;;7.00;7.00;;;;;;;;5049324;28;9471;-81
2023/07/26 04:46:07;;;;;;;;;7.00;5.50;;;;;;;;5048866;28;9475;-81
2023/07/26 04:48:34;;;;;;;;;7.50;7.25;;;;;;;;5051240;28;9527;-82
2023/07/26 04:51:03;;;;;;;;;5.00;5.00;;;;;;;;5052757;28;9480;-82
2023/07/26 04:53:30;;;;;;;;;7.00;7.00;;;;;;;;5052825;28;9627;-82
2023/07/26 04:55:57;;;;;;;;;6.50;5.25;;;;;;;;5052565;28;9470;-81
2023/07/26 04:58:25;;;;;;;;;6.50;6.50;;;;;;;;5052741;28;9543;-82
2023/07/26 05:00:52;;;;;;;;;6.00;6.00;;;;;;;;5052088;28;9480;-81
2023/07/26 05:03:19;;;;;;;;;5.75;5.75;;;;;;;;5053400;28;9551;-82
2023/07/26 05:05:50;;;;;;;;;6.75;6.75;;;;;;;;5053068;28;9594;-82
2023/07/26 05:08:20;;;;;;;;;7.00;6.50;;;;;;;;5053091;28;9676;-82
2023/07/26 05:10:50;;;;;;;;;5.33;5.33;;;;;;;;5053337;28;9562;-81
2023/07/26 05:13:20;;;;;;;;;6.00;6.00;;;;;;;;5053526;28;9349;-81
2023/07/26 05:15:48;;;;;;;;;6.00;6.00;;;;;;;;5056080;28;9397;-81
2023/07/26 05:18:15;;;;;;;;;6.00;6.00;;;;;;;;5056257;28;9517;-81
2023/07/26 05:20:44;;;;;;;;;6.00;6.00;;;;;;;;5053254;28;9349;-84
2023/07/26 05:23:12;;;;;;;;;5.67;5.67;;;;;;;;5052358;28;9448;-84
2023/07/26 05:25:41;;;;;;;;;7.50;7.25;;;;;;;;5052782;28;9416;-84
2023/07/26 05:28:08;;;;;;;;;6.33;6.00;;;;;;;;5052528;28;9393;-83
2023/07/26 05:30:39;;;;;;;;;5.67;5.67;;;;;;;;5053453;28;9424;-82
2023/07/26 05:33:06;;;;;;;;;7.00;7.00;;;;;;;;5054803;28;9342;-83
2023/07/26 05:35:33;;;;;;;;;5.33;5.33;;;;;;;;5053821;28;9453;-80
2023/07/26 05:38:01;;;;;;;;;6.33;6.33;;;;;;;;5051771;28;9218;-80
2023/07/26 05:40:28;;;;;;;;;6.00;6.00;;;;;;;;5052022;28;9383;-80
2023/07/26 05:42:57;;;;;;;;;6.67;6.00;;;;;;;;5051717;28;9460;-80
2023/07/26 05:45:24;;;;;;;;;7.00;5.00;;;;;;;;5052296;28;9442;-80
2023/07/26 05:47:52;;;;;;;;;6.67;6.67;;;;;;;;5051682;28;9373;-79
2023/07/26 05:50:19;;;;;;;;;6.00;6.00;;;;;;;;5052754;28;9084;-79
2023/07/26 05:52:46;;;;;;;;;5.00;5.00;;;;;;;;5052277;28;9986;-80
2023/07/26 05:55:16;;;;;;;;;5.67;5.33;;;;;;;;5051574;28;9148;-80
2023/07/26 05:57:43;;;;;;;;;7.00;7.00;;;;;;;;5051971;28;9133;-80
2023/07/26 06:00:14;;;;;;;;;7.00;7.00;;;;;;;;5050876;28;9019;-80
2023/07/26 06:02:41;;;;;;;;;9.33;8.00;;;;;;;;5051401;28;9086;-80
2023/07/26 06:05:09;;;;;;;;;8.33;8.33;;;;;;;;5051017;28;9007;-80
2023/07/26 06:07:36;;;;;;;;;8.33;8.33;;;;;;;;5051761;28;8930;-80
2023/07/26 06:10:04;;;;;;;;;6.00;6.00;;;;;;;;5051379;28;9059;-81
2023/07/26 06:12:32;;;;;;;;;6.67;6.67;;;;;;;;5051484;28;8934;-80
2023/07/26 06:15:00;;;;;;;;;7.00;5.67;;;;;;;;5051144;28;8941;-79
2023/07/26 06:17:28;;;;;;;;;5.50;5.50;;;;;;;;5050964;28;8964;-80
2023/07/26 06:19:55;;;;;;;;;9.33;8.67;;;;;;;;5051200;28;9619;-79
2023/07/26 06:22:23;;;;;;;;;6.00;6.00;;;;;;;;5051380;28;9038;-79
2023/07/26 06:24:50;;;;;;;;;9.67;8.33;;;;;;;;5052218;28;9070;-78
2023/07/26 06:27:22;;;;;;;;;9.25;8.25;;;;;;;;5051443;28;9054;-79
2023/07/26 06:29:49;;;;;;;;;9.00;7.50;;;;;;;;5051192;28;8839;-79
2023/07/26 06:32:16;;;;;;;;;7.75;7.75;;;;;;;;5050911;28;8779;-79
2023/07/26 06:34:45;;;;;;;;;9.25;9.25;;;;;;;;5050993;28;8851;-80
2023/07/26 06:37:13;;;;;;;;;6.25;6.25;;;;;;;;5050927;28;8955;-79
2023/07/26 06:39:40;;;;;;;;;7.00;7.00;;;;;;;;5051102;28;8881;-80
2023/07/26 06:42:09;;;;;;;;;8.75;7.00;;;;;;;;5050651;28;8847;-80
2023/07/26 06:44:36;;;;;;;;;6.50;6.50;;;;;;;;5051108;28;8909;-79
2023/07/26 06:47:03;;;;;;;;;5.75;5.75;;;;;;;;5050795;28;8855;-80
2023/07/26 06:49:30;;;;;;;;;6.25;6.25;;;;;;;;5051298;28;8839;-82
2023/07/26 06:51:59;;;;;;;;;6.00;5.00;;;;;;;;5050587;28;8873;-80
2023/07/26 06:54:26;;;;;;;;;8.75;7.00;;;;;;;;5050566;28;8863;-80
2023/07/26 06:56:54;;;;;;;;;9.00;7.67;;;;;;;;5050900;28;8843;-80
2023/07/26 06:59:21;;;;;;;;;8.00;8.00;;;;;;;;5051373;28;8977;-79
2023/07/26 07:01:49;;;;;;;;;6.00;6.00;;;;;;;;5051282;28;8914;-79
2023/07/26 07:04:16;;;;;;;;;8.50;7.00;;;;;;;;5052876;28;8917;-79
2023/07/26 07:06:44;;;;;;;;;8.00;8.00;;;;;;;;5053779;28;8882;-80
2023/07/26 07:09:13;;;;;;;;;6.75;6.75;;;;;;;;5054476;28;9108;-80
2023/07/26 07:11:40;;;;;;;;;6.25;6.00;;;;;;;;5054432;28;8897;-80
2023/07/26 07:14:07;;;;;;;;;11.00;7.50;;;;;;;;5054271;28;9005;-80
2023/07/26 07:16:35;;;;;;;;;7.00;7.00;;;;;;;;5053695;28;8851;-79
2023/07/26 07:19:02;;;;;;;;;6.25;6.25;;;;;;;;5051130;28;8969;-80
2023/07/26 07:21:29;;;;;;;;;8.00;8.00;;;;;;;;5050481;28;8977;-79
2023/07/26 07:23:56;;;;;;;;;7.00;7.00;;;;;;;;5050006;28;8874;-78
2023/07/26 07:26:26;;;;;;;;;7.25;5.75;;;;;;;;5049938;28;8884;-79
2023/07/26 07:28:53;;;;;;;;;8.00;8.00;;;;;;;;5049916;28;8966;-79
2023/07/26 07:31:21;;;;;;;;;8.00;8.00;;;;;;;;5049470;28;8813;-79
2023/07/26 07:33:48;;;;;;;;;7.00;7.00;;;;;;;;5050356;28;8855;-79
2023/07/26 07:36:18;;;;;;;;;6.00;6.00;;;;;;;;5050261;28;8847;-79
2023/07/26 07:38:45;;;;;;;;;8.00;8.00;;;;;;;;5049843;28;8850;-79
2023/07/26 07:41:15;;;;;;;;;6.75;6.25;;;;;;;;5049762;28;8843;-79
2023/07/26 07:43:44;;;;;;;;;8.00;8.00;;;;;;;;5050006;28;8855;-80
2023/07/26 07:46:11;;;;;;;;;7.00;7.00;;;;;;;;5050486;28;8847;-79
2023/07/26 07:48:40;;;;;;;;;8.00;8.00;;;;;;;;5051789;28;8854;-79
2023/07/26 07:51:08;;;;;;;;;10.75;8.75;;;;;;;;5051260;28;8847;-79
2023/07/26 07:53:35;;;;;;;;;5.75;5.75;;;;;;;;5050266;28;8869;-79
2023/07/26 07:56:02;;;;;;;;;7.00;7.00;;;;;;;;5050830;28;8841;-79
2023/07/26 07:58:29;;;;;;;;;7.00;7.00;;;;;;;;5049639;28;8886;-79
2023/07/26 08:01:02;;;;;;;;;6.00;6.00;;;;;;;;5049154;28;8876;-79
2023/07/26 08:03:30;;;;;;;;;7.00;7.00;;;;;;;;5049496;28;9013;-80
2023/07/26 08:05:57;;;;;;;;;7.50;6.00;;;;;;;;5049466;28;8938;-78
2023/07/26 08:08:24;;;;;;;;;8.50;8.50;;;;;;;;5049831;28;8851;-79
2023/07/26 08:10:51;;;;;;;;;7.25;6.00;;;;;;;;5048974;28;8839;-79
2023/07/26 08:13:18;;;;;;;;;5.75;5.75;;;;;;;;5049887;28;8843;-79
2023/07/26 08:15:46;;;;;;;;;5.75;5.75;;;;;;;;5049299;28;8929;-79
2023/07/26 08:18:15;;;;;;;;;8.00;7.50;;;;;;;;5049355;28;8851;-79
2023/07/26 08:20:43;;;;;;;;;5.75;5.75;;;;;;;;5049529;28;8843;-80
2023/07/26 08:23:10;;;;;;;;;6.00;6.00;;;;;;;;5051136;28;8883;-79
2023/07/26 08:25:37;;;;;;;;;5.75;5.75;;;;;;;;5053442;28;8875;-79
2023/07/26 08:28:05;;;;;;;;;5.25;5.25;;;;;;;;5053193;28;8850;-79
2023/07/26 08:30:32;;;;;;;;;7.00;6.75;;;;;;;;5053087;28;8783;-79
2023/07/26 08:32:59;;;;;;;;;7.50;6.25;;;;;;;;5053224;28;8851;-80
2023/07/26 08:35:28;;;;;;;;;7.00;7.00;;;;;;;;5053739;28;8917;-79
2023/07/26 08:37:55;;;;;;;;;6.50;5.25;;;;;;;;5054041;28;8875;-78
2023/07/26 08:40:22;;;;;;;;;6.75;6.75;;;;;;;;5054605;28;8870;-79
2023/07/26 08:42:50;;;;;;;;;7.75;7.75;;;;;;;;5055225;28;8859;-79
2023/07/26 08:45:18;;;;;;;;;6.75;5.25;;;;;;;;5056474;28;8894;-79
2023/07/26 08:47:46;;;;;;;;;7.25;6.00;;;;;;;;5057582;28;8867;-79
2023/07/26 08:50:13;;;;;;;;;5.50;4.25;;;;;;;;5057222;28;8843;-79
2023/07/26 08:52:45;;;;;;;;;5.40;5.40;;;;;;;;5054890;28;8890;-79
2023/07/26 08:55:12;;;;;;;;;7.20;5.00;;;;;;;;5053479;28;8835;-78
2023/07/26 08:57:40;;;;;;;;;7.60;5.40;;;;;;;;5053221;28;9021;-80
2023/07/26 09:00:08;;;;;;;;;7.40;6.00;;;;;;;;5052620;28;8870;-79
2023/07/26 09:02:40;;;;;;;;;4.80;4.80;;;;;;;;5052675;28;8859;-79
2023/07/26 09:05:08;;;;;;;;;7.00;7.00;;;;;;;;5052230;28;8993;-79
2023/07/26 09:07:35;;;;;;;;;6.00;6.00;;;;;;;;5052804;28;8978;-79
2023/07/26 09:10:04;;;;;;;;;6.00;6.00;;;;;;;;5052572;28;8989;-78
2023/07/26 09:12:31;;;;;;;;;5.60;5.60;;;;;;;;5052494;28;8873;-79
2023/07/26 09:15:00;;;;;;;;;6.80;6.80;;;;;;;;5052168;28;8857;-79
2023/07/26 09:17:40;;;;;;;;;7.60;7.60;;;;;;;;5052343;28;8878;-79
2023/07/26 09:20:20;;;;;;;;;5.20;4.00;;;;;;;;5052557;28;8843;-79
2023/07/26 09:22:48;;;;;;;;;5.00;5.00;;;;;;;;5053286;28;8875;-79
2023/07/26 09:25:31;;;;;;;;;8.00;8.00;;;;;;;;5053059;28;8928;-79
2023/07/26 09:27:59;;;;;;;;;8.20;6.20;;;;;;;;5053065;28;8898;-79
2023/07/26 09:30:26;;;;;;;;;8.20;6.00;;;;;;;;5052667;28;8800;-78
2023/07/26 09:32:54;;;;;;;;;8.00;7.20;;;;;;;;5052055;28;8846;-78
2023/07/26 09:35:21;;;;;;;;;6.80;6.80;;;;;;;;5052445;28;8839;-78
2023/07/26 09:37:49;;;;;;;;;6.00;6.00;;;;;;;;5052085;28;8993;-79
2023/07/26 09:40:18;;;;;;;;;5.00;4.60;;;;;;;;5052222;28;8851;-80
2023/07/26 09:42:46;;;;;;;;;9.40;6.20;;;;;;;;5051984;28;8969;-79
2023/07/26 09:45:19;;;;;;;;;7.00;6.80;;;;;;;;5051911;28;8835;-79
2023/07/26 09:47:46;;;;;;;;;5.20;5.20;;;;;;;;5052853;28;9640;-79
2023/07/26 09:50:27;;;;;;;;;3.80;3.80;;;;;;;;5052146;28;8874;-79
2023/07/26 09:52:55;;;;;;;;;5.00;5.00;;;;;;;;5052058;28;8944;-80
2023/07/26 09:55:26;;;;;;;;;4.60;4.60;;;;;;;;5052033;28;8866;-78
2023/07/26 09:57:54;;;;;;;;;3.80;3.80;;;;;;;;5051530;28;8866;-79
2023/07/26 10:00:23;;;;;;;;;3.00;3.00;;;;;;;;5051668;28;8863;-79
2023/07/26 10:02:56;;;;;;;;;4.60;4.60;;;;;;;;5051776;28;8855;-79
2023/07/26 10:05:25;;;;;;;;;5.20;5.20;;;;;;;;5052014;28;8831;-79
2023/07/26 10:07:52;;;;;;;;;4.00;4.00;;;;;;;;5051725;28;8874;-78
2023/07/26 10:10:21;;;;;;;;;3.80;3.20;;;;;;;;5052021;28;8858;-79
2023/07/26 10:12:52;;;;;;;;;3.40;3.40;;;;;;;;5051751;28;8877;-80
2023/07/26 10:15:22;;;;;;;;;3.00;3.00;;;;;;;;5051525;28;8874;-79
2023/07/26 10:17:49;;;;;;;;;2.80;2.80;;;;;;;;5052338;28;8897;-79
2023/07/26 10:20:17;;;;;;;;;4.00;4.00;;;;;;;;5051981;28;8874;-79
2023/07/26 10:22:44;;;;;;;;;2.80;2.80;;;;;;;;5051649;28;8843;-79
2023/07/26 10:25:12;;;;;;;;;3.40;3.40;;;;;;;;5052369;28;8855;-79
2023/07/26 10:27:40;;;;;;;;;2.00;2.00;;;;;;;;5053710;28;8878;-79
2023/07/26 10:30:10;;;;;;;;;2.00;2.00;;;;;;;;5052609;28;8862;-80
2023/07/26 10:32:41;;;;;;;;;2.60;2.60;;;;;;;;5054511;28;8908;-79
2023/07/26 10:35:11;;;;;;;;;3.40;3.40;;;;;;;;5052640;28;8855;-79
2023/07/26 10:37:38;;;;;;;;;3.40;3.40;;;;;;;;5051180;28;9724;-79
2023/07/26 10:40:31;;;;;;;;;1.80;1.80;;;;;;;;5050527;28;8980;-79
2023/07/26 10:42:59;;;;;;;;;3.00;2.60;;;;;;;;5050189;28;8859;-79
2023/07/26 10:45:43;;;;;;;;;6.80;3.60;;;;;;;;5049515;28;8847;-79
2023/07/26 10:48:14;;;;;;;;;5.60;2.80;;;;;;;;5050306;28;8957;-79
2023/07/26 10:50:42;;;;;;;;;2.00;2.00;;;;;;;;5051056;28;8866;-80
2023/07/26 10:53:30;;;;;;;;;3.00;3.00;;;;;;;;5050725;28;8976;-80
2023/07/26 10:56:09;;;;;;;;;2.80;2.80;;;;;;;;5050470;28;8847;-78
2023/07/26 10:58:36;;;;;;;;;3.80;3.80;;;;;;;;5050990;28;8851;-79
2023/07/26 11:01:05;;;;;;;;;2.80;2.80;;;;;;;;5050492;28;8776;-78
2023/07/26 11:03:32;;;;;;;;;2.20;2.20;;;;;;;;5051937;28;9649;-79
2023/07/26 11:06:00;;;;;;;;;3.00;1.80;;;;;;;;5052834;28;8902;-79
2023/07/26 11:08:42;;;;;;;;;2.60;2.60;;;;;;;;5051356;28;8990;-80
2023/07/26 11:11:10;;;;;;;;;4.00;4.00;;;;;;;;5050407;28;9390;-79
2023/07/26 11:13:37;;;;;;;;;2.20;2.20;;;;;;;;5050131;28;8859;-78
2023/07/26 11:16:06;;;;;;;;;2.00;2.00;;;;;;;;5049831;28;8843;-80
2023/07/26 11:18:41;;;;;;;;;3.00;3.00;;;;;;;;5050113;28;8859;-80
2023/07/26 11:21:08;;;;;;;;;2.00;2.00;;;;;;;;5050169;28;8870;-79
2023/07/26 11:23:35;;;;;;;;;3.00;2.20;;;;;;;;5050589;28;8906;-80
2023/07/26 11:26:03;;;;;;;;;3.00;3.00;;;;;;;;5052063;28;8859;-80
2023/07/26 11:28:34;;;;;;;;;4.40;3.00;;;;;;;;5052409;28;8851;-81
2023/07/26 11:31:01;;;;;;;;;4.60;3.00;;;;;;;;5049746;28;8909;-80
2023/07/26 11:33:32;;;;;;;;;2.00;2.00;;;;;;;;5049926;28;8982;-80
2023/07/26 11:36:01;;;;;;;;;1.80;1.80;;;;;;;;5049888;28;8929;-80
2023/07/26 11:38:29;;;;;;;;;1.20;1.20;;;;;;;;5050120;28;8851;-81
2023/07/26 11:40:57;;;;;;;;;2.00;2.00;;;;;;;;5049344;28;8909;-80
2023/07/26 11:43:25;;;;;;;;;1.40;1.40;;;;;;;;5050169;28;8855;-80
2023/07/26 11:45:53;;;;;;;;;2.20;2.20;;;;;;;;5049605;28;8863;-79
2023/07/26 11:48:21;;;;;;;;;2.20;2.20;;;;;;;;5051032;28;8871;-78
2023/07/26 11:50:54;;;;;;;;;1.20;1.20;;;;;;;;5054424;28;8893;-78
2023/07/26 11:53:28;;;;;;;;;1.20;1.20;;;;;;;;5050507;28;9002;-78
2023/07/26 11:55:55;;;;;;;;;1.00;1.00;;;;;;;;5050071;28;8970;-80
2023/07/26 11:58:23;;;;;;;;;1.00;1.00;;;;;;;;5049406;28;8881;-78
2023/07/26 12:00:50;;;;;;;;;0.60;0.60;;;;;;;;5049354;28;8788;-77
2023/07/26 12:03:18;;;;;;;;;1.40;1.40;;;;;;;;5053569;28;8986;-78
2023/07/26 12:05:52;;;;;;;;;2.20;0.60;;;;;;;;5053094;28;8851;-78
2023/07/26 12:08:20;;;;;;;;;2.00;1.80;;;;;;;;5053931;28;9666;-79
2023/07/26 12:10:48;;;;;;;;;0.00;0.00;;;;;;;;5052193;28;8897;-78
2023/07/26 12:13:20;;;;;;;;;1.20;1.20;;;;;;;;5050285;28;8862;-77
2023/07/26 12:15:51;;;;;;;;;1.40;1.40;;;;;;;;5050048;28;8855;-78
2023/07/26 12:18:19;;;;;;;;;0.40;0.20;;;;;;;;5049586;28;8878;-80
2023/07/26 12:20:59;;;;;;;;;0.40;0.40;;;;;;;;5050230;28;8966;-81
2023/07/26 12:23:27;;;;;;;;;1.80;1.80;;;;;;;;5049349;28;9725;-78
2023/07/26 12:25:56;;;;;;;;;2.20;1.80;;;;;;;;5049061;28;8924;-80
2023/07/26 12:28:24;;;;;;;;;1.20;1.20;;;;;;;;5048960;28;8843;-80
2023/07/26 12:30:55;;;;;;;;;0.20;0.20;;;;;;;;5048540;28;8787;-80
2023/07/26 12:33:22;;;;;;;;;0.40;0.40;;;;;;;;5049076;28;8871;-75
2023/07/26 12:35:53;;;;;;;;;0.20;0.20;;;;;;;;5049215;28;8863;-78
2023/07/26 12:38:22;;;;;;;;;0.20;0.20;;;;;;;;5050057;28;8851;-76
2023/07/26 12:40:50;;;;;;;;;4.00;0.60;;;;;;;;5049731;28;8878;-78
2023/07/26 12:43:23;;;;;;;;;1.20;1.20;;;;;;;;5049244;28;8871;-78
2023/07/26 12:45:51;;;;;;;;;0.40;0.40;;;;;;;;5048969;28;8843;-78
2023/07/26 12:48:19;;;;;;;;;1.00;1.00;;;;;;;;5049445;28;8859;-78
2023/07/26 12:50:46;;;;;;;;;0.40;0.40;;;;;;;;5049436;28;8865;-77
2023/07/26 12:53:16;;;;;;;;;0.20;0.20;;;;;;;;5048572;28;9002;-77
2023/07/26 12:55:45;;;;;;;;;2.20;0.20;;;;;;;;5048943;28;8851;-77
2023/07/26 12:58:12;;;;;;;;;1.00;1.00;;;;;;;;5048964;28;8867;-78
2023/07/26 13:00:40;;;;;;;;;1.20;1.20;;;;;;;;5048892;28;8775;-77
2023/07/26 13:03:07;;;;;;;;;2.60;2.60;;;;;;;;5048934;28;8887;-78
2023/07/26 13:05:34;;;;;;;;;0.60;0.00;;;;;;;;5048801;28;8885;-78
2023/07/26 13:08:02;;;;;;;;;0.00;0.00;;;;;;;;5048878;28;8885;-79
2023/07/26 13:10:29;;;;;;;;;2.00;0.60;;;;;;;;5052782;28;8827;-78
2023/07/26 13:12:58;;;;;;;;;0.00;0.00;;;;;;;;5052286;28;8920;-78
2023/07/26 13:15:25;;;;;;;;;1.20;1.20;;;;;;;;5052482;28;8978;-78
2023/07/26 13:17:53;;;;;;;;;0.60;0.60;;;;;;;;5052635;28;9017;-78
2023/07/26 13:20:21;;;;;;;;;1.00;1.00;;;;;;;;5052691;28;8855;-78
2023/07/26 13:22:48;;;;;;;;;0.60;0.60;;;;;;;;5052636;28;8859;-80
2023/07/26 13:25:15;;;;;;;;;2.60;1.00;;;;;;;;5052733;28;8851;-78
2023/07/26 13:27:43;;;;;;;;;0.00;0.00;;;;;;;;5052458;28;8882;-78
2023/07/26 13:30:13;;;;;;;;;2.20;1.00;;;;;;;;5051791;28;9021;-77
2023/07/26 13:32:40;;;;;;;;;0.80;0.80;;;;;;;;5052442;28;9279;-78
2023/07/26 13:35:08;;;;;;;;;0.00;0.00;;;;;;;;5052758;28;8851;-78
2023/07/26 13:37:36;;;;;;;;;1.00;1.00;;;;;;;;5054909;28;8835;-78
2023/07/26 13:40:04;;;;;;;;;0.20;0.00;;;;;;;;5054469;28;8851;-78
2023/07/26 13:42:32;;;;;;;;;0.80;0.80;;;;;;;;5054577;28;8851;-79
2023/07/26 13:45:00;;;;;;;;;0.40;0.40;;;;;;;;5053204;28;9013;-79
2023/07/26 13:47:30;;;;;;;;;1.20;1.20;;;;;;;;5052596;28;8851;-78
2023/07/26 13:49:57;;;;;;;;;0.00;0.00;;;;;;;;5051838;28;8846;-78
2023/07/26 13:52:25;;;;;;;;;0.40;0.00;;;;;;;;5051764;28;8855;-77
2023/07/26 13:54:52;;;;;;;;;0.00;0.00;;;;;;;;5051359;28;8859;-77
2023/07/26 13:57:19;;;;;;;;;1.40;1.40;;;;;;;;5052018;28;8855;-78
2023/07/26 13:59:46;;;;;;;;;1.20;0.00;;;;;;;;5051899;28;8851;-77
2023/07/26 14:02:13;;;;;;;;;1.00;1.00;;;;;;;;5051310;28;9661;-77
2023/07/26 14:04:44;;;;;;;;;0.20;0.20;;;;;;;;5051354;28;8862;-78
2023/07/26 14:07:11;;;;;;;;;0.20;0.20;;;;;;;;5050988;28;8859;-77
2023/07/26 14:09:39;;;;;;;;;1.40;1.40;;;;;;;;5051595;28;8870;-77
2023/07/26 14:12:08;;;;;;;;;0.00;0.00;;;;;;;;5051622;28;8843;-77
2023/07/26 14:14:36;;;;;;;;;1.00;1.00;;;;;;;;5051084;28;8858;-77
2023/07/26 14:17:03;;;;;;;;;0.80;0.80;;;;;;;;5052917;28;8985;-77
2023/07/26 14:19:30;;;;;;;;;1.00;1.00;;;;;;;;5052207;28;8863;-77
2023/07/26 14:21:59;;;;;;;;;0.20;0.20;;;;;;;;5052163;28;8897;-77
2023/07/26 14:24:27;;;;;;;;;1.00;1.00;;;;;;;;5053028;28;8870;-78
2023/07/26 14:26:55;;;;;;;;;0.20;0.00;;;;;;;;5051538;28;8855;-78
2023/07/26 14:29:22;;;;;;;;;0.20;0.20;;;;;;;;5051027;28;8975;-77
2023/07/26 14:31:52;;;;;;;;;0.20;0.20;;;;;;;;5051109;28;8775;-77
2023/07/26 14:34:20;;;;;;;;;1.80;1.80;;;;;;;;5051759;28;8854;-77
2023/07/26 14:36:47;;;;;;;;;1.80;1.80;;;;;;;;5052009;28;8854;-76
2023/07/26 14:39:16;;;;;;;;;0.80;0.20;;;;;;;;5051970;28;8977;-78
2023/07/26 14:41:44;;;;;;;;;0.20;0.20;;;;;;;;5052304;28;8875;-78
2023/07/26 14:44:11;;;;;;;;;0.60;0.60;;;;;;;;5050943;28;8882;-77
2023/07/26 14:46:38;;;;;;;;;2.20;1.00;;;;;;;;5050878;28;8986;-78
2023/07/26 14:49:06;;;;;;;;;0.20;0.20;;;;;;;;5050859;28;8851;-78
2023/07/26 14:51:33;;;;;;;;;2.20;1.00;;;;;;;;5051024;28;9244;-79
2023/07/26 14:54:00;;;;;;;;;0.20;0.20;;;;;;;;5050910;28;8847;-78
2023/07/26 14:56:29;;;;;;;;;2.00;0.00;;;;;;;;5050237;28;8838;-78